Southport, NC

9:30 PM EDT on March 26, 2017 (GMT -0400)
Brunswick County

Weather History for KSUT - April, 2014

Change the Weather History Date:

Monday, April 28, 2014

  Actual Average (KILM) Record (KILM)
Temperature  
Mean Temperature 70 °F -  
Max Temperature 79 °F 77 °F 90 °F (1981)
Min Temperature 61 °F 55 °F 40 °F (1993)
Cooling Degree Days 5    
Growing Degree Days 20 (Base 50)    
Moisture  
Dew Point 65 °F    
Average Humidity 85    
Maximum Humidity 97    
Minimum Humidity 63    
Precipitation  
Precipitation 0.00 in - - ()
Sea Level Pressure  
Sea Level Pressure 29.97 in    
Wind  
Wind Speed 3 mph (South)    
Max Wind Speed 13 mph    
Max Gust Speed 18 mph    
Visibility 10 miles    
Events      
Averages and records for this station are not official NWS values.
T = Trace of Precipitation, MM = Missing Value Source: NWS Daily Summary

Daily Weather History Graph

Daily Weather History Graph

Search for Another Location

Airport or City:

Trip Planner

Search our weather history database for the weather conditions in past years. The results will help you decide how hot, cold, wet, or windy it might be!

Date:

Astronomy

Apr. 28, 2014 Rise Set
Actual Time 6:26 AM EDT 7:53 PM EDT
Civil Twilight 5:59 AM EDT 8:20 PM EDT
Nautical Twilight 5:28 AM EDT 8:51 PM EDT
Astronomical Twilight 4:55 AM EDT 9:25 PM EDT
Moon 6:00 AM EDT (4/28) 7:30 PM EDT (4/28)
Length of Visible Light 14h 20m
Length of Day
13h 27m
Waning Crescent, 0% of the Moon is Illuminated
Apr 28
Waning Crescent
Apr 29
New
May 6
First Quarter
May 14
Full
May 21
Last Quarter

Hourly Weather History & Observations

Time (EDT) Temp. Dew Point Humidity Pressure Visibility Wind Dir Wind Speed Gust Speed Precip Events Conditions
12:15 AM 65.3 °F 63.1 °F 93% 30.00 in 10.0 mi Calm Calm - N/A   Clear
12:35 AM 65.3 °F 63.1 °F 93% 30.00 in 10.0 mi Calm Calm - N/A   Clear
12:55 AM 65.3 °F 63.9 °F 95% 30.00 in 10.0 mi SW 3.5 mph - N/A   Clear
1:15 AM 65.3 °F 63.9 °F 95% 30.00 in 10.0 mi Calm Calm - N/A   Clear
1:35 AM 64.6 °F 63.1 °F 95% 29.99 in 10.0 mi Calm Calm - N/A   Clear
1:55 AM 64.0 °F 62.8 °F 96% 29.99 in 10.0 mi Calm Calm - N/A   Clear
2:15 AM 63.9 °F 62.4 °F 95% 29.99 in 10.0 mi Calm Calm - N/A   Clear
2:35 AM 63.9 °F 62.8 °F 96% 29.98 in 10.0 mi Calm Calm - N/A   Clear
2:55 AM 63.7 °F 62.6 °F 96% 29.98 in 7.0 mi Calm Calm - N/A   Clear
3:15 AM 63.5 °F 62.6 °F 97% 29.98 in 7.0 mi Calm Calm - N/A   Clear
3:35 AM 63.7 °F 62.8 °F 97% 29.97 in 7.0 mi Calm Calm - N/A   Clear
3:55 AM 62.8 °F 61.9 °F 97% 29.97 in 4.0 mi Calm Calm - N/A   Clear
4:15 AM 63.3 °F 62.6 °F 97% 29.98 in 5.0 mi Calm Calm - N/A   Clear
4:35 AM 63.5 °F 62.6 °F 97% 29.98 in 7.0 mi Calm Calm - N/A   Clear
4:55 AM 62.6 °F 61.7 °F 97% 29.98 in 7.0 mi Calm Calm - N/A   Clear
5:15 AM 61.7 °F 60.4 °F 96% 29.98 in 10.0 mi Calm Calm - N/A   Clear
5:35 AM 61.9 °F 61.0 °F 97% 29.99 in 5.0 mi Calm Calm - N/A   Clear
5:55 AM 61.9 °F 61.0 °F 97% 29.99 in 7.0 mi Calm Calm - N/A   Clear
6:15 AM 61.9 °F 60.8 °F 96% 29.99 in 10.0 mi Calm Calm - N/A   Clear
6:35 AM 62.6 °F 61.5 °F 96% 29.99 in 10.0 mi Calm Calm - N/A   Clear
6:55 AM 63.9 °F 62.2 °F 94% 29.99 in 10.0 mi Calm Calm - N/A   Clear
7:15 AM 65.5 °F 63.9 °F 94% 29.99 in 10.0 mi Calm Calm - N/A   Clear
7:35 AM 66.4 °F 64.4 °F 93% 30.00 in 10.0 mi Calm Calm - N/A   Clear
7:55 AM 67.1 °F 64.4 °F 91% 30.00 in 10.0 mi SE 3.5 mph - N/A   Scattered Clouds
8:15 AM 68.7 °F 64.8 °F 87% 29.99 in 10.0 mi SE 4.6 mph - N/A   Scattered Clouds
8:35 AM 68.5 °F 64.8 °F 88% 29.98 in 10.0 mi SSE 3.5 mph - N/A   Scattered Clouds
8:55 AM 69.1 °F 64.6 °F 86% 30.00 in 10.0 mi Calm Calm - N/A   Mostly Cloudy
9:15 AM 69.6 °F 64.9 °F 85% 30.00 in 10.0 mi Calm Calm - N/A   Overcast
9:35 AM 70.9 °F 65.3 °F 82% 30.00 in 10.0 mi SSE 3.5 mph - N/A   Mostly Cloudy
9:55 AM 73.0 °F 65.8 °F 78% 30.01 in 10.0 mi Calm Calm - N/A   Mostly Cloudy
10:15 AM 73.8 °F 66.0 °F 77% 30.00 in 10.0 mi South 5.8 mph - N/A   Scattered Clouds
10:35 AM 75.7 °F 66.4 °F 73% 30.00 in 10.0 mi South 4.6 mph - N/A   Mostly Cloudy
10:55 AM 76.1 °F 66.0 °F 71% 30.00 in 10.0 mi South 9.2 mph - N/A   Mostly Cloudy
11:15 AM 76.5 °F 66.4 °F 71% 30.00 in 10.0 mi South 8.1 mph - N/A   Mostly Cloudy
11:35 AM 76.1 °F 65.8 °F 70% 30.00 in 10.0 mi South 9.2 mph - N/A   Overcast
12:15 PM 78.1 °F 64.8 °F 63% 29.99 in 10.0 mi South 9.2 mph - N/A   Mostly Cloudy
12:35 PM 77.9 °F 64.4 °F 63% 29.98 in 10.0 mi South 8.1 mph - N/A   Mostly Cloudy
12:55 PM 79.2 °F 66.9 °F 66% 29.98 in 10.0 mi SSW 6.9 mph - N/A   Scattered Clouds
1:15 PM 78.4 °F 67.3 °F 68% 29.98 in 10.0 mi South 6.9 mph - N/A   Clear
1:35 PM 77.5 °F 66.6 °F 69% 29.98 in 10.0 mi South 10.4 mph - N/A   Scattered Clouds
1:55 PM 77.9 °F 66.7 °F 68% 29.98 in 10.0 mi South 9.2 mph - N/A   Overcast
2:15 PM 77.0 °F 67.1 °F 71% 29.98 in 10.0 mi South 10.4 mph 16.1 mph N/A   Overcast
2:35 PM 76.1 °F 67.1 °F 74% 29.97 in 10.0 mi South 10.4 mph 17.3 mph N/A   Overcast
2:55 PM 76.5 °F 67.6 °F 74% 29.96 in 10.0 mi South 10.4 mph 17.3 mph N/A   Scattered Clouds
3:15 PM 76.8 °F 68.0 °F 74% 29.95 in 10.0 mi South 12.7 mph 18.4 mph N/A   Scattered Clouds
3:35 PM 76.5 °F 67.8 °F 75% 29.95 in 10.0 mi South 10.4 mph 17.3 mph N/A   Mostly Cloudy
3:55 PM 76.1 °F 68.0 °F 76% 29.94 in 10.0 mi South 10.4 mph 17.3 mph N/A   Mostly Cloudy
4:35 PM 76.1 °F 67.3 °F 74% 29.93 in 10.0 mi South 10.4 mph 16.1 mph N/A   Mostly Cloudy
5:15 PM 75.0 °F 66.4 °F 74% 29.92 in 10.0 mi South 9.2 mph 17.3 mph N/A   Overcast
5:35 PM 75.4 °F 66.4 °F 73% 29.93 in 10.0 mi South 10.4 mph 16.1 mph N/A   Mostly Cloudy
5:55 PM 74.5 °F 66.4 °F 76% 29.92 in 10.0 mi South 8.1 mph 17.3 mph N/A   Scattered Clouds
6:15 PM 73.9 °F 66.7 °F 78% 29.92 in 10.0 mi South 10.4 mph 16.1 mph N/A   Scattered Clouds
6:35 PM 73.0 °F 66.4 °F 80% 29.91 in 10.0 mi South 8.1 mph 16.1 mph N/A   Mostly Cloudy
6:55 PM 72.5 °F 66.4 °F 81% 29.91 in 10.0 mi South 6.9 mph - N/A   Overcast
7:15 PM 72.5 °F 66.9 °F 83% 29.91 in 10.0 mi SSE 6.9 mph - N/A   Overcast
7:35 PM 71.2 °F 66.6 °F 85% 29.91 in 10.0 mi South 5.8 mph - N/A   Overcast
7:55 PM 70.9 °F 66.6 °F 86% 29.91 in 10.0 mi South 6.9 mph - N/A   Overcast
8:15 PM 70.3 °F 66.6 °F 88% 29.92 in 10.0 mi SSE 5.8 mph - N/A   Overcast
8:35 PM 70.0 °F 66.4 °F 88% 29.93 in 10.0 mi SSE 4.6 mph - N/A   Overcast
8:55 PM 70.0 °F 66.6 °F 89% 29.93 in 10.0 mi South 3.5 mph - N/A   Mostly Cloudy
9:15 PM 69.8 °F 67.1 °F 91% 29.93 in 10.0 mi South 6.9 mph - N/A   Scattered Clouds
9:35 PM 70.7 °F 67.1 °F 88% 29.93 in 10.0 mi South 8.1 mph - N/A   Scattered Clouds
9:55 PM 70.7 °F 67.5 °F 89% 29.93 in 10.0 mi South 6.9 mph - N/A   Mostly Cloudy
10:15 PM 70.5 °F 67.5 °F 90% 29.93 in 10.0 mi South 6.9 mph - N/A   Mostly Cloudy
10:55 PM 69.8 °F 67.1 °F 91% 29.93 in 10.0 mi South 4.6 mph - N/A   Mostly Cloudy
11:15 PM 70.0 °F 67.3 °F 91% 29.93 in 10.0 mi South 5.8 mph - N/A   Overcast
11:35 PM 70.2 °F 67.5 °F 91% 29.92 in 10.0 mi South 8.1 mph - N/A   Overcast
11:55 PM 70.0 °F 67.8 °F 93% 29.92 in 10.0 mi SSW 8.1 mph - N/A   Mostly Cloudy